Time;durP1;ratioP1;P1;durP2;ratioP2;P2;SDS_P1;SDS_P2;PMS_P1;PMS_P2;Temp;Humidity;BMP_temperature;BMP_pressure;BME280_temperature;BME280_humidity;BME280_pressure;Samples;Min_cycle;Max_cycle;Signal;HPM_P1;HPM_P2
2023/05/15 00:02:05;;;;;;;10.43;8.48;;;11.90;99.90;;;;;;5024190;28;20076;-79
2023/05/15 00:04:31;;;;;;;13.70;9.80;;;11.90;99.90;;;;;;5041881;28;20493;-79
2023/05/15 00:06:57;;;;;;;10.35;8.80;;;11.90;99.90;;;;;;5025801;28;20029;-79
2023/05/15 00:09:22;;;;;;;12.80;9.70;;;11.80;99.90;;;;;;5022293;28;20424;-78
2023/05/15 00:11:50;;;;;;;10.60;8.38;;;11.80;99.90;;;;;;5039850;28;20037;-78
2023/05/15 00:14:15;;;;;;;9.20;7.30;;;11.90;99.90;;;;;;5011397;28;20402;-79
2023/05/15 00:16:41;;;;;;;13.70;11.07;;;11.80;99.90;;;;;;5027612;28;20036;-78
2023/05/15 00:19:07;;;;;;;19.45;13.35;;;11.70;99.90;;;;;;5024469;28;20026;-79
2023/05/15 00:21:33;;;;;;;15.10;12.02;;;11.60;99.90;;;;;;5009189;28;20517;-79
2023/05/15 00:23:58;;;;;;;18.58;13.05;;;11.60;99.90;;;;;;5022524;28;20041;-78
2023/05/15 00:26:24;;;;;;;19.02;13.50;;;11.50;99.90;;;;;;5024208;28;20087;-79
2023/05/15 00:28:51;;;;;;;16.45;12.35;;;11.50;99.90;;;;;;5007822;28;20128;-79
2023/05/15 00:31:16;;;;;;;17.27;12.50;;;11.50;99.90;;;;;;5027414;28;20486;-79
2023/05/15 00:33:42;;;;;;;14.75;11.38;;;11.50;99.90;;;;;;5007442;28;20041;-79
2023/05/15 00:36:09;;;;;;;12.45;11.15;;;11.40;99.90;;;;;;5026104;28;20053;-78
2023/05/15 00:38:34;;;;;;;13.30;10.27;;;11.40;99.90;;;;;;5024263;28;20029;-78
2023/05/15 00:41:03;;;;;;;16.13;10.65;;;11.40;99.90;;;;;;5023295;28;20037;-79
2023/05/15 00:43:30;;;;;;;16.13;13.13;;;11.40;99.90;;;;;;5010131;28;20057;-80
2023/05/15 00:45:57;;;;;;;19.10;13.35;;;11.30;99.90;;;;;;5026750;28;20502;-80
2023/05/15 00:48:24;;;;;;;15.90;12.15;;;11.30;99.90;;;;;;5011000;28;20041;-79
2023/05/15 00:50:50;;;;;;;19.95;14.27;;;11.30;99.90;;;;;;5026864;28;20124;-79
2023/05/15 00:53:17;;;;;;;16.08;12.02;;;11.20;99.90;;;;;;5003402;28;20040;-78
2023/05/15 00:55:45;;;;;;;12.98;9.60;;;11.20;99.90;;;;;;5010613;28;20033;-79
2023/05/15 00:58:13;;;;;;;10.25;8.82;;;11.20;99.90;;;;;;5010731;28;20030;-80
2023/05/15 01:00:39;;;;;;;9.70;8.35;;;11.20;99.90;;;;;;5010193;28;20033;-79
2023/05/15 01:03:05;;;;;;;8.80;7.13;;;11.20;99.90;;;;;;5011223;28;20355;-79
2023/05/15 01:05:32;;;;;;;11.32;7.00;;;11.20;99.90;;;;;;5022191;28;20026;-80
2023/05/15 01:08:16;;;;;;;10.77;8.85;;;11.10;99.90;;;;;;5010077;28;20371;-80
2023/05/15 01:10:44;;;;;;;7.20;6.50;;;11.10;99.90;;;;;;5007003;28;20116;-79
2023/05/15 01:13:12;;;;;;;8.00;6.35;;;11.10;99.90;;;;;;5011087;28;20037;-79
2023/05/15 01:15:38;;;;;;;9.38;6.63;;;11.10;99.90;;;;;;5021789;28;20108;-79
2023/05/15 01:18:04;;;;;;;8.45;6.03;;;11.00;99.90;;;;;;5026955;28;20112;-79
2023/05/15 01:20:38;;;;;;;7.40;5.15;;;10.90;99.90;;;;;;5010013;28;20032;-80
2023/05/15 01:23:12;;;;;;;7.25;6.03;;;10.80;99.90;;;;;;5024773;28;20028;-79
2023/05/15 01:26:01;;;;;;;6.30;5.70;;;10.90;99.90;;;;;;5017011;28;20030;-79
2023/05/15 01:28:36;;;;;;;5.93;4.97;;;10.80;99.90;;;;;;5006074;28;20046;-79
2023/05/15 01:31:09;;;;;;;6.28;5.22;;;10.80;99.90;;;;;;5005597;28;20026;-80
2023/05/15 01:33:39;;;;;;;6.88;5.38;;;10.80;99.90;;;;;;5008945;28;20478;-79
2023/05/15 01:36:08;;;;;;;6.75;5.57;;;10.80;99.90;;;;;;5007408;28;20033;-80
2023/05/15 01:38:35;;;;;;;;;;;10.80;99.90;;;;;;5007200;28;20037;-79
2023/05/15 01:41:19;;;;;;;17.60;12.07;;;10.60;99.90;;;;;;5033944;28;19921;-80
2023/05/15 01:43:49;;;;;;;17.50;13.40;;;10.40;99.90;;;;;;5006269;28;20040;-79
2023/05/15 01:46:20;;;;;;;13.90;10.48;;;10.40;99.90;;;;;;5023284;28;20030;-80
2023/05/15 01:48:48;;;;;;;8.18;6.90;;;10.50;99.90;;;;;;5006395;28;20490;-79
2023/05/15 01:51:15;;;;;;;14.23;11.48;;;10.60;99.90;;;;;;5025257;28;20021;-79
2023/05/15 01:53:42;;;;;;;11.98;9.45;;;10.40;99.90;;;;;;5006125;28;20079;-79
2023/05/15 01:56:11;;;;;;;10.45;8.15;;;10.50;99.90;;;;;;5022804;28;20030;-78
2023/05/15 01:58:38;;;;;;;15.15;11.23;;;10.50;99.90;;;;;;5021635;28;20033;-79
2023/05/15 02:01:08;;;;;;;10.23;8.93;;;10.50;99.90;;;;;;5021449;28;20462;-79
2023/05/15 02:03:35;;;;;;;11.90;8.30;;;10.40;99.90;;;;;;5041134;28;20033;-79
2023/05/15 02:06:02;;;;;;;7.43;6.10;;;10.40;99.90;;;;;;5023500;28;20486;-80
2023/05/15 02:08:29;;;;;;;7.57;6.47;;;10.40;99.90;;;;;;5006629;28;20454;-79
2023/05/15 02:10:58;;;;;;;8.55;6.97;;;10.40;99.90;;;;;;5009303;28;20087;-79
2023/05/15 02:13:25;;;;;;;7.85;5.93;;;10.30;99.90;;;;;;5005639;28;20432;-79
2023/05/15 02:15:51;;;;;;;10.55;6.82;;;10.40;99.90;;;;;;5025844;28;20079;-79
2023/05/15 02:18:17;;;;;;;8.60;7.70;;;10.30;99.90;;;;;;5021112;28;20536;-79
2023/05/15 02:20:43;;;;;;;6.72;6.03;;;10.20;99.90;;;;;;5009474;28;20022;-80
2023/05/15 02:23:09;;;;;;;7.10;5.88;;;10.20;99.90;;;;;;5009570;28;20041;-79
2023/05/15 02:25:51;;;;;;;7.32;5.90;;;10.20;99.90;;;;;;5002559;28;20021;-80
2023/05/15 02:28:27;;;;;;;6.70;5.95;;;10.10;99.90;;;;;;5005577;28;20044;-79
2023/05/15 02:30:58;;;;;;;5.45;4.70;;;10.10;99.90;;;;;;5038225;28;20018;-80
2023/05/15 02:34:06;;;;;;;4.97;4.43;;;10.10;99.90;;;;;;5023604;28;20029;-80
2023/05/15 02:36:35;;;;;;;5.00;4.30;;;10.00;99.90;;;;;;4991829;28;20071;-80
2023/05/15 02:39:01;;;;;;;9.05;7.40;;;10.00;99.90;;;;;;5008821;28;20029;-80
2023/05/15 02:41:30;;;;;;;8.88;7.10;;;10.00;99.90;;;;;;5013280;28;20313;-79
2023/05/15 02:43:59;;;;;;;7.38;5.40;;;10.10;99.90;;;;;;5026178;28;20045;-79
2023/05/15 02:46:26;;;;;;;9.82;7.53;;;10.00;99.90;;;;;;5009368;28;20057;-80
2023/05/15 02:48:53;;;;;;;7.90;6.20;;;10.10;99.90;;;;;;5007420;28;20038;-80
2023/05/15 02:51:19;;;;;;;8.57;6.45;;;10.10;99.90;;;;;;5041622;28;20037;-80
2023/05/15 02:53:45;;;;;;;5.82;5.22;;;10.00;99.90;;;;;;5025158;28;20029;-80
2023/05/15 02:56:11;;;;;;;7.03;5.82;;;9.90;99.90;;;;;;5009423;28;20026;-80
2023/05/15 02:58:38;;;;;;;6.68;5.82;;;9.80;99.90;;;;;;5007977;28;20152;-79
2023/05/15 03:01:04;;;;;;;8.05;5.72;;;9.80;99.90;;;;;;5041157;28;20052;-79
2023/05/15 03:03:29;;;;;;;7.05;5.70;;;9.90;99.90;;;;;;5024920;28;20033;-78
2023/05/15 03:05:55;;;;;;;8.43;5.60;;;9.80;99.90;;;;;;5028762;28;20048;-80
2023/05/15 03:08:21;;;;;;;8.40;6.57;;;9.80;99.90;;;;;;5027895;28;20657;-80
2023/05/15 03:10:46;;;;;;;5.82;5.25;;;9.70;99.90;;;;;;5009732;28;20462;-79
2023/05/15 03:13:12;;;;;;;5.65;5.05;;;9.70;99.90;;;;;;5013405;28;20034;-80
2023/05/15 03:15:38;;;;;;;6.63;4.82;;;9.70;99.90;;;;;;5007413;28;20026;-80
2023/05/15 03:18:03;;;;;;;5.68;5.00;;;9.60;99.90;;;;;;5042319;28;20047;-78
2023/05/15 03:20:29;;;;;;;5.65;4.90;;;9.50;99.90;;;;;;5022287;28;20061;-79
2023/05/15 03:22:55;;;;;;;7.00;5.93;;;9.50;99.90;;;;;;5027425;28;20038;-79
2023/05/15 03:25:21;;;;;;;5.97;4.85;;;9.50;99.90;;;;;;5039208;28;20080;-78
2023/05/15 03:27:48;;;;;;;6.90;4.90;;;9.40;99.90;;;;;;5010691;28;20074;-79
2023/05/15 03:30:14;;;;;;;4.60;4.15;;;9.30;99.90;;;;;;5009815;28;20041;-79
2023/05/15 03:32:39;;;;;;;10.30;7.53;;;9.40;99.90;;;;;;5009520;28;20018;-78
2023/05/15 03:35:05;;;;;;;13.00;10.63;;;9.40;99.90;;;;;;5026515;28;20501;-78
2023/05/15 03:37:31;;;;;;;11.70;10.05;;;9.30;99.90;;;;;;5011102;28;20426;-78
2023/05/15 03:39:57;;;;;;;11.30;9.13;;;9.30;99.90;;;;;;5007638;28;20033;-80
2023/05/15 03:42:23;;;;;;;8.52;7.60;;;9.30;99.90;;;;;;5010030;28;20028;-79
2023/05/15 03:44:49;;;;;;;8.90;6.25;;;9.30;99.90;;;;;;5011340;28;20152;-79
2023/05/15 03:47:15;;;;;;;7.15;5.88;;;9.40;99.90;;;;;;5026062;28;20087;-79
2023/05/15 03:49:42;;;;;;;7.18;5.82;;;9.30;99.90;;;;;;5009565;28;20493;-79
2023/05/15 03:52:08;;;;;;;6.25;5.53;;;9.30;99.90;;;;;;5012707;28;20490;-79
2023/05/15 03:54:34;;;;;;;6.05;5.25;;;9.30;99.90;;;;;;5011254;28;20109;-79
2023/05/15 03:57:00;;;;;;;7.30;5.50;;;9.30;99.90;;;;;;5023698;28;20033;-80
2023/05/15 03:59:25;;;;;;;6.97;5.63;;;9.40;99.90;;;;;;5022222;28;20033;-80
2023/05/15 04:01:51;;;;;;;8.38;6.68;;;9.30;99.90;;;;;;5021882;28;20156;-80
2023/05/15 04:04:16;;;;;;;12.43;8.98;;;9.40;99.90;;;;;;5025014;28;20164;-80
2023/05/15 04:06:42;;;;;;;12.43;9.55;;;9.40;99.90;;;;;;5012353;28;20084;-80
2023/05/15 04:09:08;;;;;;;18.85;12.75;;;9.50;99.90;;;;;;5019967;28;20045;-79
2023/05/15 04:11:35;;;;;;;13.30;10.63;;;9.70;99.90;;;;;;5022742;28;20125;-80
2023/05/15 04:14:01;;;;;;;13.65;10.85;;;9.60;99.90;;;;;;5011623;28;20091;-80
2023/05/15 04:16:26;;;;;;;15.27;10.43;;;9.60;99.90;;;;;;5023236;28;20017;-80
2023/05/15 04:18:52;;;;;;;14.32;11.63;;;9.70;99.90;;;;;;5010483;28;20082;-79
2023/05/15 04:21:18;;;;;;;20.98;14.10;;;9.70;99.90;;;;;;5028254;28;20567;-80
2023/05/15 04:23:43;;;;;;;22.70;15.98;;;9.80;99.90;;;;;;5022320;28;20026;-79
2023/05/15 04:26:09;;;;;;;23.02;16.63;;;9.80;99.90;;;;;;5025656;28;20112;-80
2023/05/15 04:28:35;;;;;;;18.50;14.82;;;9.90;99.90;;;;;;5006931;28;20334;-79
2023/05/15 04:31:00;;;;;;;20.30;16.48;;;9.80;99.90;;;;;;5024881;28;20382;-80
2023/05/15 04:33:26;;;;;;;24.38;15.73;;;9.80;99.90;;;;;;5008024;28;20182;-79
2023/05/15 04:35:52;;;;;;;26.65;19.77;;;9.80;99.90;;;;;;5011281;28;20030;-79
2023/05/15 04:38:18;;;;;;;24.10;17.52;;;9.90;99.90;;;;;;5027851;28;20105;-80
2023/05/15 04:40:44;;;;;;;19.67;13.68;;;9.90;99.90;;;;;;5006487;28;20029;-79
2023/05/15 04:43:10;;;;;;;25.13;16.20;;;10.00;99.90;;;;;;5028424;28;20095;-79
2023/05/15 04:45:35;;;;;;;24.48;17.65;;;10.10;99.90;;;;;;5006057;28;20100;-80
2023/05/15 04:48:01;;;;;;;20.50;13.68;;;10.20;99.90;;;;;;5005971;28;20030;-79
2023/05/15 04:50:27;;;;;;;40.30;17.95;;;10.30;99.90;;;;;;5027735;28;20183;-79
2023/05/15 04:52:53;;;;;;;27.90;19.00;;;10.30;99.90;;;;;;5008891;28;20026;-80
2023/05/15 04:55:18;;;;;;;24.02;17.83;;;10.40;99.90;;;;;;5011010;28;20111;-80
2023/05/15 04:57:47;;;;;;;19.95;14.10;;;10.40;99.90;;;;;;5010179;28;20064;-80
2023/05/15 05:00:14;;;;;;;16.98;12.38;;;10.50;99.90;;;;;;5022031;28;20030;-79
2023/05/15 05:02:41;;;;;;;17.48;11.68;;;10.50;99.90;;;;;;5005203;28;20022;-80
2023/05/15 05:05:07;;;;;;;16.15;12.13;;;10.50;99.90;;;;;;5010113;28;20119;-79
2023/05/15 05:07:34;;;;;;;14.93;10.80;;;10.60;99.90;;;;;;5010295;28;20021;-79
2023/05/15 05:10:00;;;;;;;15.80;12.27;;;10.70;99.90;;;;;;5023666;28;20056;-79
2023/05/15 05:12:26;;;;;;;24.30;17.65;;;10.70;99.90;;;;;;5024949;28;20033;-80
2023/05/15 05:14:52;;;;;;;25.33;18.73;;;10.60;99.90;;;;;;5009491;28;20029;-80
2023/05/15 05:17:17;;;;;;;30.50;21.00;;;10.70;99.90;;;;;;5004887;28;20317;-79
2023/05/15 05:19:43;;;;;;;24.58;18.10;;;10.70;99.90;;;;;;5024759;28;20033;-79
2023/05/15 05:22:10;;;;;;;28.33;18.83;;;10.80;99.90;;;;;;5036063;28;20029;-79
2023/05/15 05:24:36;;;;;;;32.13;21.33;;;10.80;99.90;;;;;;5023163;28;20030;-79
2023/05/15 05:27:02;;;;;;;28.30;20.15;;;10.80;99.90;;;;;;5039312;28;20112;-79
2023/05/15 05:29:29;;;;;;;28.08;19.90;;;10.80;99.90;;;;;;5005218;28;20397;-78
2023/05/15 05:31:55;;;;;;;29.15;21.00;;;10.80;99.90;;;;;;5005577;28;20079;-80
2023/05/15 05:34:21;;;;;;;29.33;21.65;;;10.80;99.90;;;;;;5010357;28;20029;-80
2023/05/15 05:36:47;;;;;;;28.55;20.85;;;10.80;99.90;;;;;;5008336;28;20036;-79
2023/05/15 05:39:15;;;;;;;29.27;20.40;;;10.80;99.90;;;;;;5009197;28;20033;-79
2023/05/15 05:41:41;;;;;;;28.10;20.50;;;10.90;99.90;;;;;;5006725;28;20061;-79
2023/05/15 05:44:07;;;;;;;30.20;20.90;;;10.80;99.90;;;;;;5005016;28;20074;-79
2023/05/15 05:46:32;;;;;;;28.05;19.52;;;10.80;99.90;;;;;;5021847;28;20026;-79
2023/05/15 05:48:58;;;;;;;27.52;20.10;;;10.80;99.90;;;;;;5010415;28;20167;-79
2023/05/15 05:51:24;;;;;;;29.77;19.85;;;10.70;99.90;;;;;;5020789;28;20026;-78
2023/05/15 05:53:50;;;;;;;29.25;19.48;;;10.90;99.90;;;;;;5022434;28;20470;-79
2023/05/15 05:56:16;;;;;;;32.00;19.45;;;10.90;99.90;;;;;;5021766;28;20025;-78
2023/05/15 05:58:41;;;;;;;25.20;16.88;;;10.90;99.90;;;;;;5006583;28;20334;-79
2023/05/15 06:01:07;;;;;;;22.60;15.10;;;11.00;99.90;;;;;;5008771;28;20224;-79
2023/05/15 06:03:34;;;;;;;27.20;18.83;;;11.10;99.90;;;;;;5009256;28;20092;-78
2023/05/15 06:05:59;;;;;;;29.75;20.15;;;11.10;99.90;;;;;;5009628;28;20030;-78
2023/05/15 06:08:25;;;;;;;26.17;18.00;;;11.10;99.90;;;;;;5022687;28;20036;-79
2023/05/15 06:10:51;;;;;;;20.13;15.10;;;11.30;99.90;;;;;;5023327;28;20158;-80
2023/05/15 06:13:17;;;;;;;22.60;15.68;;;11.40;99.90;;;;;;5024565;28;20119;-79
2023/05/15 06:15:44;;;;;;;22.70;16.27;;;11.70;99.90;;;;;;5013335;28;20021;-79
2023/05/15 06:18:10;;;;;;;16.23;12.63;;;12.10;99.90;;;;;;5028928;28;20026;-79
2023/05/15 06:20:35;;;;;;;18.67;13.63;;;12.50;99.90;;;;;;5027666;28;20032;-80
2023/05/15 06:23:01;;;;;;;21.40;16.77;;;12.80;99.90;;;;;;5040484;28;20065;-78
2023/05/15 06:25:27;;;;;;;24.52;18.30;;;12.90;99.90;;;;;;5010301;28;20033;-79
2023/05/15 06:27:52;;;;;;;24.73;18.13;;;13.00;99.90;;;;;;5009364;28;20033;-80
2023/05/15 06:30:18;;;;;;;19.02;14.48;;;12.80;99.90;;;;;;5027728;28;20137;-79
2023/05/15 06:32:44;;;;;;;18.77;14.77;;;12.90;99.90;;;;;;5007491;28;20018;-79
2023/05/15 06:35:10;;;;;;;17.85;14.60;;;12.80;99.90;;;;;;5009156;28;20045;-78
2023/05/15 06:37:36;;;;;;;24.77;16.10;;;12.90;99.90;;;;;;5043782;28;20026;-80
2023/05/15 06:40:02;;;;;;;20.50;17.02;;;12.80;99.90;;;;;;5025390;28;20026;-79
2023/05/15 06:42:28;;;;;;;22.17;17.27;;;12.50;99.90;;;;;;5008283;28;20092;-79
2023/05/15 06:44:55;;;;;;;21.70;16.65;;;12.90;99.90;;;;;;5025418;28;20161;-79
2023/05/15 06:47:21;;;;;;;20.95;15.63;;;12.80;99.90;;;;;;5011992;28;20124;-80
2023/05/15 06:49:47;;;;;;;17.65;13.13;;;12.80;99.90;;;;;;5012649;28;20073;-79
2023/05/15 06:52:12;;;;;;;20.33;14.68;;;12.70;99.90;;;;;;5012395;28;20029;-79
2023/05/15 06:54:39;;;;;;;21.27;15.55;;;12.80;99.90;;;;;;5027723;28;20022;-78
2023/05/15 06:57:05;;;;;;;16.05;12.18;;;12.50;99.90;;;;;;5009867;28;20030;-79
2023/05/15 06:59:37;;;;;;;20.90;13.80;;;13.00;99.90;;;;;;5026076;28;20026;-77
2023/05/15 07:02:03;;;;;;;16.13;11.45;;;13.20;99.90;;;;;;5024558;28;20060;-79
2023/05/15 07:04:29;;;;;;;19.00;14.13;;;13.50;99.90;;;;;;5025150;28;20489;-79
2023/05/15 07:06:55;;;;;;;16.55;12.57;;;13.40;99.90;;;;;;5007301;28;20034;-80
2023/05/15 07:09:21;;;;;;;18.05;13.38;;;13.30;99.90;;;;;;5040202;28;20041;-79
2023/05/15 07:11:47;;;;;;;17.73;12.57;;;13.30;99.90;;;;;;5024486;28;20037;-79
2023/05/15 07:14:12;;;;;;;14.27;12.52;;;13.90;99.90;;;;;;5007440;28;20037;-79
2023/05/15 07:16:38;;;;;;;9.80;8.77;;;14.00;99.90;;;;;;5027345;28;20033;-79
2023/05/15 07:19:04;;;;;;;12.35;10.57;;;14.60;99.90;;;;;;5023219;28;20045;-79
2023/05/15 07:21:29;;;;;;;14.55;11.68;;;14.60;99.90;;;;;;5022563;28;20033;-79
2023/05/15 07:23:55;;;;;;;14.48;12.75;;;14.40;99.90;;;;;;5005733;28;20029;-79
2023/05/15 07:26:21;;;;;;;15.38;12.02;;;14.40;99.90;;;;;;5025774;28;21553;-80
2023/05/15 07:28:46;;;;;;;12.00;10.25;;;14.40;99.90;;;;;;5017675;28;20445;-79
2023/05/15 07:31:12;;;;;;;10.30;8.75;;;14.60;99.90;;;;;;5036012;28;20492;-80
2023/05/15 07:33:37;;;;;;;15.13;11.60;;;15.00;99.90;;;;;;5006141;28;20074;-80
2023/05/15 07:36:03;;;;;;;12.85;10.60;;;14.60;99.90;;;;;;5001320;28;20128;-79
2023/05/15 07:38:29;;;;;;;14.32;10.07;;;14.30;99.90;;;;;;4999154;28;20407;-80
2023/05/15 07:40:55;;;;;;;17.20;12.82;;;14.60;99.90;;;;;;5005869;28;20022;-80
2023/05/15 07:43:20;;;;;;;14.07;11.45;;;14.70;99.90;;;;;;5022700;28;20564;-81
2023/05/15 07:45:46;;;;;;;10.27;8.77;;;14.60;99.90;;;;;;5001013;28;20095;-79
2023/05/15 07:48:16;;;;;;;13.00;9.55;;;15.00;99.90;;;;;;5007334;28;20084;-79
2023/05/15 07:50:41;;;;;;;10.10;8.85;;;15.10;99.90;;;;;;5001620;28;20382;-79
2023/05/15 07:53:07;;;;;;;11.00;9.02;;;15.10;99.90;;;;;;5020377;28;20041;-80
2023/05/15 07:55:33;;;;;;;10.05;8.15;;;15.10;99.90;;;;;;5022666;28;20025;-79
2023/05/15 07:57:59;;;;;;;10.90;8.30;;;15.40;99.90;;;;;;5015514;28;20038;-79
2023/05/15 08:00:25;;;;;;;12.05;10.07;;;15.60;99.90;;;;;;5022962;28;20029;-80
2023/05/15 08:02:50;;;;;;;11.70;9.95;;;15.50;99.90;;;;;;5001681;28;20035;-79
2023/05/15 08:05:16;;;;;;;12.93;10.45;;;15.80;99.90;;;;;;5023012;28;20040;-80
2023/05/15 08:07:42;;;;;;;8.90;7.53;;;15.80;99.90;;;;;;5000960;28;20112;-80
2023/05/15 08:10:08;;;;;;;16.15;12.00;;;16.30;99.90;;;;;;5016262;28;20388;-81
2023/05/15 08:12:34;;;;;;;14.90;13.38;;;16.00;99.90;;;;;;5021090;28;20025;-80
2023/05/15 08:14:59;;;;;;;11.88;10.55;;;15.70;99.90;;;;;;5016460;28;20037;-80
2023/05/15 08:17:25;;;;;;;9.93;8.93;;;15.70;99.90;;;;;;5006666;28;20088;-79
2023/05/15 08:19:52;;;;;;;13.07;10.48;;;16.60;99.90;;;;;;5019517;28;20116;-80
2023/05/15 08:22:18;;;;;;;14.43;11.82;;;16.40;99.90;;;;;;5006848;28;20171;-80
2023/05/15 08:24:44;;;;;;;14.93;12.30;;;15.90;99.90;;;;;;5005897;28;20546;-80
2023/05/15 08:27:10;;;;;;;11.75;10.00;;;15.70;99.90;;;;;;5031601;28;20173;-80
2023/05/15 08:29:36;;;;;;;13.07;10.68;;;15.90;99.90;;;;;;5020081;28;20074;-80
2023/05/15 08:32:02;;;;;;;14.50;12.18;;;16.10;99.90;;;;;;5015287;28;20030;-80
2023/05/15 08:34:28;;;;;;;16.63;13.13;;;16.20;99.90;;;;;;5013608;28;20033;-80
2023/05/15 08:36:55;;;;;;;12.63;11.32;;;15.90;99.90;;;;;;5004786;28;20052;-80
2023/05/15 08:39:21;;;;;;;10.50;9.20;;;16.10;99.90;;;;;;5007375;28;20029;-80
2023/05/15 08:41:56;;;;;;;10.63;9.27;;;16.20;99.90;;;;;;5004335;28;20025;-80
2023/05/15 08:44:23;;;;;;;11.48;10.20;;;16.60;99.90;;;;;;5017561;28;20069;-80
2023/05/15 08:46:49;;;;;;;7.85;6.80;;;16.50;99.90;;;;;;5015787;28;20112;-79
2023/05/15 08:49:45;;;;;;;8.27;7.20;;;17.00;99.90;;;;;;5021428;28;20037;-80
2023/05/15 08:52:11;;;;;;;11.98;10.68;;;16.90;99.90;;;;;;5013502;28;20038;-80
2023/05/15 08:54:39;;;;;;;10.25;8.70;;;16.70;99.90;;;;;;5022986;28;20088;-80
2023/05/15 08:57:06;;;;;;;11.25;9.40;;;16.90;99.90;;;;;;5002068;28;20037;-81
2023/05/15 08:59:32;;;;;;;12.00;10.55;;;16.70;99.90;;;;;;5009253;28;20030;-80
2023/05/15 09:01:58;;;;;;;11.93;10.10;;;16.70;99.90;;;;;;5017907;28;20522;-80
2023/05/15 09:04:24;;;;;;;10.65;9.38;;;16.70;99.90;;;;;;4999356;28;20109;-80
2023/05/15 09:06:50;;;;;;;12.02;10.27;;;16.90;99.90;;;;;;5020519;28;20462;-80
2023/05/15 09:09:17;;;;;;;11.93;9.80;;;16.60;99.90;;;;;;5019643;28;20644;-79
2023/05/15 09:11:44;;;;;;;9.80;8.05;;;16.50;99.90;;;;;;5014710;28;22254;-80
2023/05/15 09:14:10;;;;;;;9.05;8.10;;;16.80;99.90;;;;;;5022453;28;20029;-79
2023/05/15 09:16:37;;;;;;;13.32;10.82;;;17.00;99.90;;;;;;5016437;28;20540;-80
2023/05/15 09:19:03;;;;;;;13.07;11.02;;;16.90;99.90;;;;;;5017557;28;20038;-79
2023/05/15 09:21:32;;;;;;;11.93;9.57;;;17.00;99.90;;;;;;5017851;28;20506;-80
2023/05/15 09:24:16;;;;;;;15.27;11.63;;;17.10;99.90;;;;;;4999013;28;20559;-80
2023/05/15 09:26:43;;;;;;;12.32;10.82;;;16.70;99.90;;;;;;5005395;28;20391;-80
2023/05/15 09:29:09;;;;;;;9.77;8.68;;;17.30;99.90;;;;;;4996895;28;20255;-80
2023/05/15 09:31:35;;;;;;;8.60;7.22;;;17.50;99.90;;;;;;5004167;28;20029;-80
2023/05/15 09:34:03;;;;;;;9.93;8.63;;;18.10;99.90;;;;;;5006818;28;20045;-80
2023/05/15 09:36:29;;;;;;;10.73;9.63;;;18.00;99.90;;;;;;4999376;28;20031;-80
2023/05/15 09:39:00;;;;;;;7.65;6.95;;;17.80;99.90;;;;;;5021256;28;20057;-80
2023/05/15 09:41:26;;;;;;;13.52;11.10;;;18.00;99.90;;;;;;5011507;28;20497;-80
2023/05/15 09:43:55;;;;;;;8.73;7.93;;;17.70;99.90;;;;;;5018901;28;20418;-80
2023/05/15 09:46:21;;;;;;;15.48;12.40;;;18.60;99.90;;;;;;5015731;28;20126;-80
2023/05/15 09:48:47;;;;;;;9.52;8.63;;;17.60;99.90;;;;;;5015779;28;20187;-79
2023/05/15 09:51:17;;;;;;;12.65;10.70;;;18.40;99.90;;;;;;5016450;28;20390;-80
2023/05/15 09:53:47;;;;;;;;;;;18.40;99.90;;;;;;5016294;28;20040;-80
2023/05/15 09:56:13;;;;;;;10.95;9.90;;;18.70;99.90;;;;;;5032509;28;19952;-81
2023/05/15 09:58:52;;;;;;;13.23;11.82;;;18.50;99.90;;;;;;5014010;28;20220;-81
2023/05/15 10:01:20;;;;;;;15.30;12.70;;;18.30;99.90;;;;;;5016178;28;20086;-80
2023/05/15 10:03:57;;;;;;;13.38;11.98;;;18.00;99.90;;;;;;5030437;28;20120;-80
2023/05/15 10:06:23;;;;;;;15.27;13.73;;;18.40;99.90;;;;;;5015822;28;20026;-81
2023/05/15 10:08:56;;;;;;;14.52;12.30;;;17.90;99.90;;;;;;5021249;28;20053;-84
2023/05/15 10:11:23;;;;;;;18.48;14.48;;;17.70;99.90;;;;;;5022547;28;20396;-81
2023/05/15 10:13:48;;;;;;;16.92;14.30;;;17.50;99.90;;;;;;5001972;28;20041;-80
2023/05/15 10:16:14;;;;;;;20.20;15.35;;;17.80;99.90;;;;;;5006103;28;20025;-81
2023/05/15 10:18:40;;;;;;;15.13;12.77;;;17.70;99.90;;;;;;5014449;28;20749;-80
2023/05/15 10:21:08;;;;;;;14.27;12.77;;;18.20;99.90;;;;;;5020309;28;20068;-80
2023/05/15 10:23:40;;;;;;;14.25;12.05;;;18.30;99.90;;;;;;4999503;28;20120;-81
2023/05/15 10:26:38;;;;;;;11.93;9.07;;;18.00;99.90;;;;;;5016658;28;20563;-81
2023/05/15 10:29:07;;;;;;;18.00;16.08;;;18.70;99.90;;;;;;5017483;28;20650;-81
2023/05/15 10:31:36;;;;;;;18.08;16.08;;;18.30;99.90;;;;;;5005020;28;20558;-81
2023/05/15 10:34:03;;;;;;;21.00;17.88;;;18.30;99.90;;;;;;5014235;28;20026;-80
2023/05/15 10:36:31;;;;;;;20.58;17.40;;;17.90;99.90;;;;;;4999564;28;20401;-82
2023/05/15 10:39:02;;;;;;;23.90;18.52;;;18.00;99.90;;;;;;5014326;28;20362;-81
2023/05/15 10:41:31;;;;;;;20.88;18.67;;;17.70;99.90;;;;;;5013156;28;20489;-80
2023/05/15 10:43:58;;;;;;;17.10;15.30;;;17.60;99.90;;;;;;5013468;28;20042;-80
2023/05/15 10:46:25;;;;;;;21.42;17.42;;;18.00;99.90;;;;;;5027680;28;20491;-80
2023/05/15 10:48:51;;;;;;;17.15;15.27;;;17.90;99.90;;;;;;5020977;28;20043;-81
2023/05/15 10:51:28;;;;;;;16.98;14.73;;;18.00;99.90;;;;;;5003805;28;20108;-80
2023/05/15 10:54:00;;;;;;;18.98;14.63;;;18.50;99.90;;;;;;5015180;28;20466;-81
2023/05/15 10:56:32;;;;;;;18.02;16.13;;;18.30;99.90;;;;;;5018440;28;20056;-81
2023/05/15 10:59:08;;;;;;;22.33;16.90;;;18.00;99.90;;;;;;5025425;28;20405;-81
2023/05/15 11:01:36;;;;;;;21.55;18.70;;;18.30;99.90;;;;;;5000322;28;20068;-80
2023/05/15 11:04:06;;;;;;;18.80;15.13;;;18.70;99.90;;;;;;5018245;28;20243;-80
2023/05/15 11:06:32;;;;;;;12.85;10.13;;;18.80;99.90;;;;;;5018663;28;20129;-80
2023/05/15 11:09:20;;;;;;;11.55;9.63;;;18.80;99.90;;;;;;5020593;28;20045;-82
2023/05/15 11:11:57;;;;;;;11.00;9.50;;;18.80;99.90;;;;;;5032150;28;20569;-81
2023/05/15 11:14:24;;;;;;;12.55;9.65;;;18.50;99.90;;;;;;5035230;28;20021;-81
2023/05/15 11:16:53;;;;;;;11.38;9.57;;;18.10;99.90;;;;;;5020754;28;20381;-81
2023/05/15 11:19:27;;;;;;;12.15;8.93;;;17.70;99.90;;;;;;5017629;28;20021;-80
2023/05/15 11:22:15;;;;;;;9.43;8.52;;;17.70;99.90;;;;;;5018997;28;20033;-79
2023/05/15 11:25:03;;;;;;;11.50;10.25;;;17.80;99.90;;;;;;5020185;28;20482;-80
2023/05/15 11:27:31;;;;;;;12.93;10.10;;;17.70;99.90;;;;;;5000867;28;20447;-80
2023/05/15 11:30:21;;;;;;;13.82;9.93;;;17.80;99.90;;;;;;5002122;28;20346;-79
2023/05/15 11:32:46;;;;;;;11.60;9.55;;;17.90;99.90;;;;;;5017043;28;20425;-79
2023/05/15 11:35:24;;;;;;;10.32;9.23;;;17.80;99.90;;;;;;5016548;28;20040;-80
2023/05/15 11:37:55;;;;;;;11.52;8.93;;;17.50;99.90;;;;;;5002510;28;20029;-80
2023/05/15 11:40:22;;;;;;;8.98;7.22;;;17.50;99.90;;;;;;5019232;28;20037;-81
2023/05/15 11:43:05;;;;;;;10.55;7.78;;;17.40;99.90;;;;;;4999249;28;20040;-81
2023/05/15 11:45:37;;;;;;;8.02;5.80;;;17.40;99.90;;;;;;5017058;28;20052;-80
2023/05/15 11:48:11;;;;;;;10.73;7.85;;;17.50;99.90;;;;;;5018250;28;20026;-80
2023/05/15 11:50:37;;;;;;;9.23;7.35;;;17.30;99.90;;;;;;5018997;28;20538;-81
2023/05/15 11:53:05;;;;;;;6.90;5.90;;;17.40;99.90;;;;;;4999853;28;20053;-81
2023/05/15 11:55:32;;;;;;;7.25;5.60;;;17.40;99.90;;;;;;5004672;28;20143;-80
2023/05/15 11:57:58;;;;;;;8.57;5.57;;;17.40;99.90;;;;;;5000268;28;20353;-81
2023/05/15 12:00:24;;;;;;;7.53;5.75;;;17.40;99.90;;;;;;5009730;28;20496;-81
2023/05/15 12:02:49;;;;;;;7.53;6.35;;;17.30;99.90;;;;;;5018019;28;20034;-80
2023/05/15 12:05:15;;;;;;;7.55;6.30;;;17.40;99.90;;;;;;5007390;28;20040;-80
2023/05/15 12:07:42;;;;;;;10.57;6.72;;;17.50;99.90;;;;;;5021937;28;20222;-81
2023/05/15 12:10:12;;;;;;;9.13;7.13;;;17.50;99.90;;;;;;5019524;28;20064;-81
2023/05/15 12:12:42;;;;;;;10.73;8.10;;;17.20;99.90;;;;;;5021242;28;20095;-80
2023/05/15 12:15:12;;;;;;;7.07;6.38;;;17.30;99.90;;;;;;5032215;28;20041;-80
2023/05/15 12:17:39;;;;;;;7.85;7.05;;;17.40;99.90;;;;;;5018313;28;20033;-80
2023/05/15 12:20:17;;;;;;;10.13;8.50;;;17.20;99.90;;;;;;5017912;28;20108;-80
2023/05/15 12:22:43;;;;;;;10.07;7.68;;;17.00;99.90;;;;;;5001588;28;20026;-79
2023/05/15 12:25:10;;;;;;;11.30;8.35;;;16.90;99.90;;;;;;5017994;28;20068;-80
2023/05/15 12:27:38;;;;;;;11.75;8.68;;;16.90;99.90;;;;;;5015004;28;20030;-80
2023/05/15 12:30:05;;;;;;;13.13;8.63;;;16.90;99.90;;;;;;5020241;28;20042;-79
2023/05/15 12:32:34;;;;;;;12.05;9.27;;;16.80;99.90;;;;;;5000240;28;20033;-80
2023/05/15 12:35:03;;;;;;;12.32;9.57;;;16.90;99.90;;;;;;5033032;28;20038;-81
2023/05/15 12:37:34;;;;;;;14.48;12.50;;;17.00;99.90;;;;;;5005536;28;20054;-80
2023/05/15 12:40:10;;;;;;;14.15;12.23;;;16.80;99.90;;;;;;5020582;28;20087;-80